createdAt,value
2019-03-06T00:00:53.283Z,22.70
2019-03-06T00:03:22.900Z,23.97
2019-03-06T00:05:52.480Z,14.97
2019-03-06T00:08:21.908Z,20.17
2019-03-06T00:10:51.521Z,18.00
2019-03-06T00:13:20.982Z,23.73
2019-03-06T00:15:51.371Z,25.10
2019-03-06T00:18:21.273Z,28.43
2019-03-06T00:20:50.731Z,22.73
2019-03-06T00:23:20.203Z,22.40
2019-03-06T00:25:49.721Z,28.90
2019-03-06T00:28:19.196Z,29.60
2019-03-06T00:30:48.664Z,17.37
2019-03-06T00:33:18.256Z,20.83
2019-03-06T00:35:49.874Z,27.97
2019-03-06T00:38:19.298Z,31.33
2019-03-06T00:41:17.065Z,19.00
2019-03-06T00:43:46.576Z,28.50
2019-03-06T00:46:16.166Z,28.07
2019-03-06T00:48:45.695Z,39.27
2019-03-06T00:51:15.203Z,31.70
2019-03-06T00:53:44.704Z,28.87
2019-03-06T00:56:14.196Z,13.20
2019-03-06T00:58:43.787Z,19.90
2019-03-06T01:01:13.210Z,20.20
2019-03-06T01:03:42.657Z,31.90
2019-03-06T01:06:12.147Z,30.90
2019-03-06T01:08:41.769Z,31.37
2019-03-06T01:11:11.245Z,28.53
2019-03-06T01:13:40.738Z,14.97
2019-03-06T01:16:10.193Z,27.30
2019-03-06T01:18:39.679Z,26.60
2019-03-06T01:21:09.157Z,14.43
2019-03-06T01:23:38.641Z,25.80
2019-03-06T01:26:08.242Z,25.10
2019-03-06T01:28:37.719Z,24.40
2019-03-06T01:31:07.557Z,28.57
2019-03-06T01:33:49.329Z,25.23
2019-03-06T01:36:25.495Z,24.23
2019-03-06T01:39:02.011Z,31.57
2019-03-06T01:41:49.682Z,28.77
2019-03-06T01:44:33.183Z,21.97
2019-03-06T01:47:02.648Z,30.53
2019-03-06T01:49:32.158Z,21.97
2019-03-06T01:52:01.860Z,32.97
2019-03-06T01:54:31.313Z,42.80
2019-03-06T01:57:00.834Z,20.57
2019-03-06T01:59:30.594Z,23.00
2019-03-06T02:02:00.081Z,27.17
2019-03-06T02:04:29.676Z,32.17
2019-03-06T02:06:59.176Z,27.07
2019-03-06T02:09:29.598Z,28.10
2019-03-06T02:11:59.164Z,27.73
2019-03-06T02:14:29.054Z,17.47
2019-03-06T02:16:58.734Z,17.60
2019-03-06T02:19:28.254Z,25.23
2019-03-06T02:21:57.743Z,24.43
2019-03-06T02:24:27.184Z,17.47
2019-03-06T02:26:56.730Z,9.33
2019-03-06T02:29:26.209Z,7.33
2019-03-06T02:31:55.763Z,5.47
2019-03-06T02:34:25.382Z,4.70
2019-03-06T02:36:54.858Z,4.37
2019-03-06T02:39:24.339Z,4.77
2019-03-06T02:41:53.988Z,2.77
2019-03-06T02:44:23.448Z,1.77
2019-03-06T02:46:52.941Z,2.20
2019-03-06T02:49:22.427Z,2.73
2019-03-06T02:51:52.003Z,4.87
2019-03-06T02:54:21.458Z,1.50
2019-03-06T02:56:50.986Z,2.07
2019-03-06T02:59:57.523Z,1.43
2019-03-06T03:02:43.613Z,1.70
2019-03-06T03:05:35.042Z,1.10
2019-03-06T03:08:04.823Z,1.33
2019-03-06T03:10:34.312Z,2.37
2019-03-06T03:13:04.209Z,2.20
2019-03-06T03:15:34.053Z,3.53
2019-03-06T03:18:03.520Z,4.10
2019-03-06T03:20:35.738Z,6.77
2019-03-06T03:23:05.629Z,3.23
2019-03-06T03:25:35.099Z,5.07
2019-03-06T03:28:04.567Z,2.23
2019-03-06T03:30:34.168Z,2.97
2019-03-06T03:33:03.604Z,1.33
2019-03-06T03:35:33.113Z,6.67
2019-03-06T03:38:02.717Z,4.00
2019-03-06T03:40:32.184Z,3.13
2019-03-06T03:43:01.672Z,3.33
2019-03-06T03:45:31.317Z,3.47
2019-03-06T03:48:00.822Z,3.43
2019-03-06T03:50:30.304Z,3.17
2019-03-06T03:52:59.956Z,3.43
2019-03-06T03:55:29.448Z,3.43
2019-03-06T03:57:58.986Z,4.67
2019-03-06T04:00:28.427Z,4.43
2019-03-06T04:02:57.979Z,5.37
2019-03-06T04:05:27.439Z,4.93
2019-03-06T04:07:56.932Z,4.07
2019-03-06T04:10:26.374Z,6.03
2019-03-06T04:12:55.805Z,4.13
2019-03-06T04:15:25.335Z,7.07
2019-03-06T04:17:54.850Z,4.13
2019-03-06T04:20:24.320Z,5.23
2019-03-06T04:22:53.766Z,5.00
2019-03-06T04:25:23.341Z,4.53
2019-03-06T04:27:53.038Z,7.77
2019-03-06T04:30:22.491Z,6.33
2019-03-06T04:32:51.896Z,8.03
2019-03-06T04:35:21.349Z,8.70
2019-03-06T04:37:50.786Z,5.63
2019-03-06T04:40:20.294Z,6.00
2019-03-06T04:42:49.736Z,4.30
2019-03-06T04:45:19.130Z,6.33
2019-03-06T04:47:48.552Z,7.40
2019-03-06T04:50:17.979Z,5.80
2019-03-06T04:52:47.418Z,6.73
2019-03-06T04:55:17.040Z,9.43
2019-03-06T04:57:46.468Z,8.60
2019-03-06T05:00:15.998Z,6.37
2019-03-06T05:02:45.409Z,8.67
2019-03-06T05:05:14.822Z,8.50
2019-03-06T05:07:44.245Z,7.27
2019-03-06T05:10:14.018Z,8.43
2019-03-06T05:12:45.957Z,8.74
2019-03-06T05:15:15.445Z,7.50
2019-03-06T05:17:53.205Z,8.43
2019-03-06T05:20:22.652Z,10.50
2019-03-06T05:22:52.040Z,9.80
2019-03-06T05:25:21.470Z,9.87
2019-03-06T05:27:50.896Z,8.37
2019-03-06T05:30:22.023Z,9.70
2019-03-06T05:32:51.529Z,12.23
2019-03-06T05:35:47.937Z,11.47
2019-03-06T05:38:24.240Z,9.53
2019-03-06T05:40:53.903Z,14.00
2019-03-06T05:43:23.367Z,12.20
2019-03-06T05:45:52.803Z,12.77
2019-03-06T05:48:22.215Z,9.77
2019-03-06T05:50:51.871Z,10.73
2019-03-06T05:53:21.276Z,12.67
2019-03-06T05:55:50.696Z,10.90
2019-03-06T05:58:20.105Z,11.70
2019-03-06T06:00:49.601Z,11.97
2019-03-06T06:03:19.007Z,13.67
2019-03-06T06:05:48.453Z,12.10
2019-03-06T06:08:18.402Z,12.17
2019-03-06T06:10:47.839Z,13.10
2019-03-06T06:13:17.300Z,13.67
2019-03-06T06:15:46.733Z,13.87
2019-03-06T06:18:16.240Z,14.13
2019-03-06T06:20:46.798Z,16.37
2019-03-06T06:23:44.401Z,14.00
2019-03-06T06:26:13.925Z,13.23
2019-03-06T06:28:43.380Z,15.80
2019-03-06T06:31:12.862Z,18.27
2019-03-06T06:33:42.309Z,15.53
2019-03-06T06:36:12.209Z,15.47
2019-03-06T06:38:41.648Z,16.53
2019-03-06T06:41:11.054Z,15.67
2019-03-06T06:43:40.652Z,16.60
2019-03-06T06:46:10.137Z,14.67
2019-03-06T06:48:39.588Z,18.63
2019-03-06T06:51:31.930Z,17.63
2019-03-06T06:54:27.649Z,19.13
2019-03-06T06:57:35.125Z,17.20
2019-03-06T07:01:11.841Z,14.07
2019-03-06T07:04:15.283Z,13.03
2019-03-06T07:07:03.674Z,14.47
2019-03-06T07:10:04.109Z,10.07
2019-03-06T07:12:52.724Z,8.80
2019-03-06T07:15:41.137Z,11.77
2019-03-06T07:18:41.851Z,12.00
2019-03-06T07:21:18.634Z,12.80
2019-03-06T07:23:54.277Z,12.37
2019-03-06T07:26:35.664Z,15.37
2019-03-06T07:29:11.012Z,12.33
2019-03-06T07:32:05.925Z,10.27
2019-03-06T07:34:46.207Z,11.57
2019-03-06T07:37:28.536Z,11.40
2019-03-06T07:40:01.468Z,10.37
2019-03-06T07:42:42.761Z,13.43
2019-03-06T07:46:13.106Z,15.03
2019-03-06T07:49:04.159Z,14.23
2019-03-06T07:51:56.558Z,14.97
2019-03-06T07:54:47.967Z,12.07
2019-03-06T07:57:34.655Z,11.10
2019-03-06T08:00:07.813Z,16.57
2019-03-06T08:03:18.134Z,11.33
2019-03-06T08:05:47.558Z,9.50
2019-03-06T08:08:16.990Z,11.53
2019-03-06T08:10:46.437Z,9.43
2019-03-06T08:13:26.102Z,9.67
2019-03-06T08:16:17.273Z,11.23
2019-03-06T08:19:07.617Z,9.70
2019-03-06T08:22:02.237Z,14.47
2019-03-06T08:24:56.662Z,13.57
2019-03-06T08:27:26.237Z,12.30
2019-03-06T08:29:55.833Z,13.30
2019-03-06T08:32:35.611Z,14.23
2019-03-06T08:35:05.669Z,13.47
2019-03-06T08:37:35.062Z,15.77
2019-03-06T08:40:05.137Z,15.43
2019-03-06T08:42:34.567Z,25.83
2019-03-06T08:45:05.134Z,22.17
2019-03-06T08:47:42.768Z,19.60
2019-03-06T08:50:23.609Z,24.80
2019-03-06T08:53:10.820Z,24.70
2019-03-06T08:55:48.977Z,23.47
2019-03-06T08:58:35.255Z,27.97
2019-03-06T09:02:00.454Z,33.80
2019-03-06T09:04:49.493Z,23.93
2019-03-06T09:07:36.007Z,19.87
2019-03-06T09:10:34.597Z,27.93
2019-03-06T09:13:21.885Z,41.67
2019-03-06T09:16:28.641Z,40.73
2019-03-06T09:19:17.024Z,31.37
2019-03-06T09:22:03.850Z,40.60
2019-03-06T09:24:50.844Z,104.70
2019-03-06T09:27:31.462Z,88.57
2019-03-06T09:30:19.669Z,26.93
2019-03-06T09:33:07.045Z,18.17
2019-03-06T09:35:45.507Z,11.30
2019-03-06T09:38:33.982Z,15.53
2019-03-06T09:41:20.967Z,15.13
2019-03-06T09:43:58.063Z,16.27
2019-03-06T09:46:55.421Z,14.53
2019-03-06T09:49:52.840Z,15.43
2019-03-06T09:52:40.109Z,14.77
2019-03-06T09:55:29.003Z,16.67
2019-03-06T09:58:08.935Z,17.70
2019-03-06T10:01:09.487Z,22.00
2019-03-06T10:04:05.071Z,29.70
2019-03-06T10:06:51.730Z,20.67
2019-03-06T10:09:38.594Z,18.00
2019-03-06T10:12:35.791Z,20.57
2019-03-06T10:15:28.279Z,25.60
2019-03-06T10:18:08.214Z,27.37
2019-03-06T10:20:37.628Z,20.43
2019-03-06T10:23:08.386Z,24.13
2019-03-06T10:25:37.834Z,23.70
2019-03-06T10:28:07.267Z,28.43
2019-03-06T10:30:36.801Z,27.10
2019-03-06T10:33:06.247Z,35.43
2019-03-06T10:35:35.738Z,33.57
2019-03-06T10:38:05.659Z,24.53
2019-03-06T10:40:35.082Z,26.60
2019-03-06T10:43:04.828Z,32.40
2019-03-06T10:45:42.031Z,32.93
2019-03-06T10:48:06.926Z,26.77
2019-03-06T10:50:36.423Z,31.77
2019-03-06T10:53:05.845Z,30.33
2019-03-06T10:55:35.326Z,30.33
2019-03-06T10:58:05.718Z,26.03
2019-03-06T11:00:38.589Z,33.50
2019-03-06T11:03:08.142Z,32.33
2019-03-06T11:05:37.690Z,34.33
2019-03-06T11:08:07.512Z,31.73
2019-03-06T11:10:37.052Z,31.63
2019-03-06T11:13:11.290Z,29.63
2019-03-06T11:15:41.317Z,34.53
2019-03-06T11:18:11.394Z,34.80
2019-03-06T11:20:41.456Z,35.53
2019-03-06T11:23:12.148Z,42.47
2019-03-06T11:25:41.936Z,40.37
2019-03-06T11:28:12.582Z,40.80
2019-03-06T11:30:46.215Z,39.33
2019-03-06T11:33:16.859Z,35.40
2019-03-06T11:35:46.849Z,37.20
2019-03-06T11:38:16.480Z,42.33
2019-03-06T11:40:46.122Z,43.23
2019-03-06T11:43:20.447Z,44.33
2019-03-06T11:45:49.949Z,47.43
2019-03-06T11:48:19.980Z,53.90
2019-03-06T11:50:49.647Z,37.70
2019-03-06T11:53:19.148Z,33.13
2019-03-06T11:55:49.135Z,35.43
2019-03-06T11:58:18.833Z,35.80
2019-03-06T12:00:49.740Z,33.97
2019-03-06T12:03:38.230Z,50.07
2019-03-06T12:06:07.675Z,47.53
2019-03-06T12:08:45.659Z,47.13
2019-03-06T12:11:08.508Z,48.10
2019-03-06T12:13:38.172Z,47.50
2019-03-06T12:16:07.782Z,49.37
2019-03-06T12:18:37.212Z,36.53
2019-03-06T12:21:06.687Z,43.70
2019-03-06T12:23:36.094Z,40.53
2019-03-06T12:26:05.938Z,40.23
2019-03-06T12:28:35.472Z,40.13
2019-03-06T12:31:07.526Z,44.20
2019-03-06T12:33:37.008Z,40.13
2019-03-06T12:36:06.757Z,42.50
2019-03-06T12:38:36.332Z,41.37
2019-03-06T12:41:06.352Z,39.13
2019-03-06T12:43:35.776Z,35.20
2019-03-06T12:46:25.304Z,45.13
2019-03-06T12:49:00.387Z,32.30
2019-03-06T12:51:30.856Z,37.33
2019-03-06T12:54:00.240Z,32.30
2019-03-06T12:56:30.088Z,32.03
2019-03-06T12:58:59.525Z,34.70
2019-03-06T13:01:29.021Z,30.83
2019-03-06T13:03:58.447Z,28.93
2019-03-06T13:06:27.925Z,31.20
2019-03-06T13:08:58.812Z,26.87
2019-03-06T13:11:28.229Z,33.10
2019-03-06T13:13:57.653Z,32.10
2019-03-06T13:16:27.117Z,27.63
2019-03-06T13:18:56.719Z,29.13
2019-03-06T13:21:26.199Z,32.03
2019-03-06T13:23:55.617Z,36.77
2019-03-06T13:26:25.055Z,26.67
2019-03-06T13:28:57.724Z,24.73
2019-03-06T13:31:25.607Z,27.60
2019-03-06T13:34:12.981Z,29.37
2019-03-06T13:36:42.467Z,27.07
2019-03-06T13:39:11.915Z,24.92
2019-03-06T13:41:41.357Z,24.20
2019-03-06T13:44:10.967Z,20.82
2019-03-06T13:46:40.386Z,19.83
2019-03-06T13:49:09.847Z,24.32
2019-03-06T13:51:39.301Z,25.23
2019-03-06T13:54:08.176Z,25.52
2019-03-06T13:56:38.544Z,24.90
2019-03-06T13:59:08.255Z,18.98
2019-03-06T14:01:37.693Z,27.37
2019-03-06T14:04:06.593Z,25.40
2019-03-06T14:06:36.055Z,14.58
2019-03-06T14:09:08.905Z,15.38
2019-03-06T14:11:38.364Z,138.97
2019-03-06T14:14:07.808Z,15.63
2019-03-06T14:16:37.343Z,13.57
2019-03-06T14:19:06.757Z,17.50
2019-03-06T14:21:35.558Z,14.63
2019-03-06T14:24:05.116Z,16.37
2019-03-06T14:26:34.514Z,20.10
2019-03-06T14:29:04.085Z,35.03
2019-03-06T14:31:33.508Z,53.02
2019-03-06T14:34:02.917Z,15.43
2019-03-06T14:36:32.542Z,25.83
2019-03-06T14:39:01.916Z,12.00
2019-03-06T14:41:31.692Z,14.70
2019-03-06T14:44:00.553Z,81.42
2019-03-06T14:46:30.000Z,14.33
2019-03-06T14:48:59.408Z,16.48
2019-03-06T14:51:28.867Z,24.25
2019-03-06T14:53:58.314Z,18.67
2019-03-06T14:56:27.880Z,14.40
2019-03-06T14:58:57.326Z,20.10
2019-03-06T15:01:26.760Z,14.40
2019-03-06T15:03:56.314Z,14.15
2019-03-06T15:06:25.781Z,17.57
2019-03-06T15:08:55.240Z,12.60
2019-03-06T15:11:32.736Z,15.90
2019-03-06T15:13:55.762Z,20.60
2019-03-06T15:16:25.168Z,17.27
2019-03-06T15:18:54.582Z,22.42
2019-03-06T15:21:24.041Z,19.65
2019-03-06T15:23:53.813Z,20.08
2019-03-06T15:26:23.418Z,61.90
2019-03-06T15:28:52.912Z,25.33
2019-03-06T15:31:22.301Z,17.10
2019-03-06T15:33:51.803Z,32.83
2019-03-06T15:36:21.257Z,41.60
2019-03-06T15:38:50.816Z,69.40
2019-03-06T15:41:20.351Z,34.43
2019-03-06T15:43:49.781Z,32.08
2019-03-06T15:46:19.243Z,32.90
2019-03-06T15:48:48.669Z,17.55
2019-03-06T15:51:18.219Z,20.62
2019-03-06T15:53:47.651Z,26.80
2019-03-06T15:56:17.120Z,25.75
2019-03-06T15:58:46.581Z,22.55
2019-03-06T16:01:15.990Z,25.63
2019-03-06T16:03:45.375Z,27.00
2019-03-06T16:06:20.323Z,59.35
2019-03-06T16:08:46.138Z,55.08
2019-03-06T16:11:15.603Z,122.90
2019-03-06T16:13:45.072Z,97.47
2019-03-06T16:16:14.930Z,131.55
2019-03-06T16:18:44.370Z,114.62
2019-03-06T16:21:14.320Z,76.10
2019-03-06T16:23:43.802Z,86.25
2019-03-06T16:26:13.226Z,99.20
2019-03-06T16:28:42.694Z,123.38
2019-03-06T16:31:12.156Z,80.10
2019-03-06T16:33:42.175Z,64.87
2019-03-06T16:36:11.618Z,84.45
2019-03-06T16:38:41.096Z,77.22
2019-03-06T16:41:10.695Z,84.80
2019-03-06T16:43:40.183Z,95.47
2019-03-06T16:46:09.671Z,105.30
2019-03-06T16:48:39.153Z,94.10
2019-03-06T16:51:10.496Z,89.72
2019-03-06T16:53:39.988Z,85.57
2019-03-06T16:56:09.579Z,86.97
2019-03-06T16:58:39.044Z,90.35
2019-03-06T17:01:08.609Z,83.95
2019-03-06T17:03:38.082Z,92.30
2019-03-06T17:06:07.759Z,104.17
2019-03-06T17:08:37.382Z,119.42
2019-03-06T17:11:07.284Z,121.57
2019-03-06T17:13:36.844Z,103.27
2019-03-06T17:16:06.322Z,104.65
2019-03-06T17:18:35.807Z,97.80
2019-03-06T17:21:05.475Z,155.32
2019-03-06T17:23:35.101Z,239.60
2019-03-06T17:26:04.716Z,129.57
2019-03-06T17:28:34.764Z,96.05
2019-03-06T17:31:04.275Z,108.72
2019-03-06T17:33:33.776Z,115.72
2019-03-06T17:36:03.364Z,125.03
2019-03-06T17:38:32.809Z,136.60
2019-03-06T17:41:02.277Z,125.30
2019-03-06T17:43:31.769Z,108.03
2019-03-06T17:46:01.252Z,98.03
2019-03-06T17:48:31.177Z,104.90
2019-03-06T17:51:00.885Z,91.95
2019-03-06T17:53:30.418Z,92.62
2019-03-06T17:56:01.118Z,85.38
2019-03-06T17:58:30.593Z,88.20
2019-03-06T18:01:06.134Z,93.90
2019-03-06T18:03:57.426Z,94.22
2019-03-06T18:06:27.161Z,88.55
2019-03-06T18:08:56.639Z,93.42
2019-03-06T18:11:26.122Z,96.32
2019-03-06T18:13:55.829Z,94.50
2019-03-06T18:16:25.245Z,100.42
2019-03-06T18:18:55.150Z,106.03
2019-03-06T18:21:24.534Z,103.40
2019-03-06T18:23:54.169Z,95.55
2019-03-06T18:26:23.603Z,98.00
2019-03-06T18:28:54.629Z,90.50
2019-03-06T18:31:24.276Z,100.13
2019-03-06T18:33:53.821Z,99.83
2019-03-06T18:36:23.657Z,103.10
2019-03-06T18:38:53.126Z,96.50
2019-03-06T18:41:22.537Z,97.60
2019-03-06T18:43:52.271Z,89.95
2019-03-06T18:46:21.728Z,95.50
2019-03-06T18:48:51.263Z,94.22
2019-03-06T18:51:20.736Z,106.22
2019-03-06T18:53:50.145Z,102.15
2019-03-06T18:56:19.619Z,93.80
2019-03-06T18:58:49.224Z,93.10
2019-03-06T19:01:18.726Z,94.30
2019-03-06T19:03:48.131Z,113.10
2019-03-06T19:06:17.648Z,114.17
2019-03-06T19:08:47.523Z,96.35
2019-03-06T19:11:17.343Z,97.00
2019-03-06T19:13:46.844Z,96.28
2019-03-06T19:16:16.368Z,90.10
2019-03-06T19:18:45.809Z,90.32
2019-03-06T19:21:15.301Z,85.60
2019-03-06T19:23:45.899Z,82.70
2019-03-06T19:26:15.789Z,84.32
2019-03-06T19:28:45.240Z,103.45
2019-03-06T19:31:14.985Z,94.87
2019-03-06T19:33:44.484Z,88.97
2019-03-06T19:36:14.032Z,92.33
2019-03-06T19:38:43.453Z,95.75
2019-03-06T19:41:12.907Z,105.00
2019-03-06T19:43:42.348Z,120.93
2019-03-06T19:46:12.166Z,121.70
2019-03-06T19:48:41.654Z,117.55
2019-03-06T19:51:11.569Z,105.45
2019-03-06T19:53:41.126Z,105.43
2019-03-06T19:56:10.663Z,99.33
2019-03-06T19:58:40.095Z,75.15
2019-03-06T20:01:09.681Z,72.90
2019-03-06T20:03:39.071Z,78.60
2019-03-06T20:06:08.638Z,73.35
2019-03-06T20:08:38.572Z,73.15
2019-03-06T20:11:08.042Z,75.28
2019-03-06T20:13:37.579Z,72.97
2019-03-06T20:16:07.126Z,72.43
2019-03-06T20:18:36.582Z,78.75
2019-03-06T20:21:06.032Z,77.32
2019-03-06T20:23:35.829Z,78.80
2019-03-06T20:26:13.785Z,71.30
2019-03-06T20:28:36.388Z,84.03
2019-03-06T20:31:06.077Z,86.47
2019-03-06T20:33:35.535Z,85.42
2019-03-06T20:36:05.000Z,83.65
2019-03-06T20:38:34.461Z,79.17
2019-03-06T20:41:03.864Z,73.75
2019-03-06T20:43:33.340Z,69.10
2019-03-06T20:46:03.062Z,73.67
2019-03-06T20:48:32.698Z,75.17
2019-03-06T20:51:02.145Z,79.03
2019-03-06T20:53:31.576Z,80.83
2019-03-06T20:56:01.078Z,76.30
2019-03-06T20:58:30.861Z,77.92
2019-03-06T21:01:00.310Z,74.12
2019-03-06T21:03:29.749Z,78.80
2019-03-06T21:05:59.450Z,82.53
2019-03-06T21:08:28.884Z,77.25
2019-03-06T21:10:58.333Z,80.12
2019-03-06T21:13:27.803Z,73.83
2019-03-06T21:15:57.229Z,82.33
2019-03-06T21:18:27.242Z,82.37
2019-03-06T21:20:57.026Z,81.17
2019-03-06T21:23:26.431Z,78.52
2019-03-06T21:25:56.227Z,76.22
2019-03-06T21:28:25.688Z,89.62
2019-03-06T21:30:55.137Z,77.40
2019-03-06T21:33:24.653Z,80.85
2019-03-06T21:35:54.584Z,87.40
2019-03-06T21:38:24.321Z,76.28
2019-03-06T21:40:53.927Z,82.80
2019-03-06T21:43:23.854Z,88.25
2019-03-06T21:45:53.293Z,85.87
2019-03-06T21:48:23.031Z,89.13
2019-03-06T21:50:53.144Z,87.20
2019-03-06T21:53:22.591Z,83.50
2019-03-06T21:55:52.030Z,84.77
2019-03-06T21:58:21.643Z,84.17
2019-03-06T22:00:51.089Z,78.47
2019-03-06T22:03:20.538Z,81.00
2019-03-06T22:05:50.474Z,84.07
2019-03-06T22:08:19.946Z,88.33
2019-03-06T22:10:49.388Z,86.72
2019-03-06T22:13:19.108Z,80.50
2019-03-06T22:15:48.554Z,79.35
2019-03-06T22:18:17.990Z,86.53
2019-03-06T22:20:47.582Z,82.83
2019-03-06T22:23:19.103Z,82.00
2019-03-06T22:25:48.236Z,83.07
2019-03-06T22:28:17.673Z,83.80
2019-03-06T22:30:47.149Z,87.25
2019-03-06T22:33:16.911Z,84.07
2019-03-06T22:35:46.335Z,81.67
2019-03-06T22:38:15.814Z,77.53
2019-03-06T22:40:45.505Z,82.22
2019-03-06T22:43:14.871Z,82.40
2019-03-06T22:45:44.399Z,81.72
2019-03-06T22:48:14.107Z,82.57
2019-03-06T22:50:43.554Z,82.12
2019-03-06T22:53:12.977Z,79.77
2019-03-06T22:55:42.863Z,75.03
2019-03-06T22:58:12.286Z,73.17
2019-03-06T23:00:55.884Z,67.62
2019-03-06T23:03:26.000Z,68.40
2019-03-06T23:05:55.480Z,71.57
2019-03-06T23:08:24.897Z,69.80
2019-03-06T23:10:54.533Z,66.90
2019-03-06T23:13:24.588Z,67.23
2019-03-06T23:15:54.025Z,65.87
2019-03-06T23:18:23.408Z,62.90
2019-03-06T23:20:52.782Z,66.57
2019-03-06T23:23:22.252Z,59.67
2019-03-06T23:25:51.684Z,61.75
2019-03-06T23:28:21.126Z,60.73
2019-03-06T23:30:50.541Z,59.93
2019-03-06T23:33:19.976Z,56.77
2019-03-06T23:35:49.417Z,60.08
2019-03-06T23:38:18.911Z,56.00
2019-03-06T23:40:48.685Z,57.30
2019-03-06T23:43:18.324Z,58.05
2019-03-06T23:45:47.774Z,58.25
2019-03-06T23:48:17.192Z,63.13
2019-03-06T23:50:47.280Z,58.10
2019-03-06T23:53:18.665Z,56.68
2019-03-06T23:55:48.169Z,52.53
2019-03-06T23:58:17.590Z,54.63
